Time;durP1;ratioP1;P1;durP2;ratioP2;P2;SDS_P1;SDS_P2;PMS_P1;PMS_P2;Temp;Humidity;BMP_temperature;BMP_pressure;BME280_temperature;BME280_humidity;BME280_pressure;Samples;Min_cycle;Max_cycle;Signal;HPM_P1;HPM_P2
2021/12/28 00:00:26;;;;;;;22.25;9.65;;;6.80;99.90;;;;;;10244968;28;20249;-59
2021/12/28 00:05:28;;;;;;;20.80;8.52;;;6.80;99.90;;;;;;10243941;28;20058;-59
2021/12/28 00:10:30;;;;;;;24.77;8.40;;;6.80;99.90;;;;;;10245865;28;20959;-59
2021/12/28 00:15:37;;;;;;;28.38;9.77;;;6.80;99.90;;;;;;10249842;28;20086;-59
2021/12/28 00:20:42;;;;;;;28.70;10.18;;;6.80;99.90;;;;;;10244809;28;20140;-59
2021/12/28 00:25:46;;;;;;;18.50;7.55;;;6.90;99.90;;;;;;10245887;28;20510;-59
2021/12/28 00:30:49;;;;;;;23.05;9.02;;;6.90;99.90;;;;;;10247089;28;20038;-60
2021/12/28 00:35:51;;;;;;;23.13;8.50;;;6.90;99.90;;;;;;10243861;28;20051;-59
2021/12/28 00:40:58;;;;;;;28.83;8.93;;;6.90;99.90;;;;;;10244054;28;20055;-58
2021/12/28 00:46:01;;;;;;;24.77;9.48;;;6.90;99.90;;;;;;10241005;28;20047;-59
2021/12/28 00:51:04;;;;;;;28.23;8.27;;;6.90;99.90;;;;;;10241363;28;20047;-59
2021/12/28 00:56:06;;;;;;;25.55;9.10;;;6.90;99.90;;;;;;10241863;28;20938;-59
2021/12/28 01:01:08;;;;;;;30.33;9.55;;;6.90;99.90;;;;;;10243984;28;20047;-58
2021/12/28 01:06:11;;;;;;;31.52;9.40;;;6.90;99.90;;;;;;10244884;28;20066;-58
2021/12/28 01:11:12;;;;;;;27.67;8.95;;;6.90;99.90;;;;;;10250478;28;20074;-58
2021/12/28 01:16:14;;;;;;;27.98;9.45;;;6.90;99.90;;;;;;10250969;28;20070;-59
2021/12/28 01:21:16;;;;;;;29.42;9.50;;;6.90;99.90;;;;;;10252741;28;20054;-59
2021/12/28 01:26:18;;;;;;;26.95;9.57;;;6.90;99.90;;;;;;10247637;28;20125;-58
2021/12/28 01:31:19;;;;;;;28.85;9.70;;;6.90;99.90;;;;;;10248220;28;20200;-59
2021/12/28 01:36:21;;;;;;;33.38;10.10;;;6.90;99.90;;;;;;10248143;28;20073;-58
2021/12/28 01:41:23;;;;;;;33.28;8.75;;;6.90;99.90;;;;;;10254136;28;20470;-59
2021/12/28 01:46:25;;;;;;;26.92;8.60;;;6.90;99.90;;;;;;10235615;28;20545;-58
2021/12/28 01:51:27;;;;;;;25.58;9.43;;;7.00;99.90;;;;;;10249897;28;20062;-61
2021/12/28 01:56:40;;;;;;;26.88;9.85;;;7.00;99.90;;;;;;10247699;28;20054;-60
2021/12/28 02:01:42;;;;;;;22.25;9.23;;;7.00;99.90;;;;;;10250173;28;20063;-59
2021/12/28 02:06:44;;;;;;;24.38;9.02;;;7.00;99.90;;;;;;10234507;28;20272;-58
2021/12/28 02:11:46;;;;;;;35.67;10.95;;;7.00;99.90;;;;;;10245592;28;20110;-58
2021/12/28 02:16:48;;;;;;;23.45;8.73;;;7.00;99.90;;;;;;10248626;28;20050;-59
2021/12/28 02:21:49;;;;;;;24.23;8.88;;;7.00;99.90;;;;;;10244843;28;20214;-58
2021/12/28 02:26:51;;;;;;;23.77;8.45;;;7.00;99.90;;;;;;10240882;28;20245;-59
2021/12/28 02:31:55;;;;;;;20.75;7.78;;;7.10;99.90;;;;;;10232904;28;20066;-58
2021/12/28 02:36:57;;;;;;;18.92;8.35;;;7.10;99.90;;;;;;10252020;28;20118;-58
2021/12/28 02:41:59;;;;;;;21.40;8.82;;;7.10;99.90;;;;;;10246901;28;20122;-59
2021/12/28 02:47:00;;;;;;;18.45;7.78;;;7.10;99.90;;;;;;10250506;28;20082;-58
2021/12/28 02:52:02;;;;;;;20.55;7.50;;;7.10;99.90;;;;;;10248672;28;20130;-58
2021/12/28 02:57:05;;;;;;;24.02;8.80;;;7.10;99.90;;;;;;10248918;28;20050;-58
2021/12/28 03:02:06;;;;;;;21.10;8.43;;;7.10;99.90;;;;;;10243704;28;20051;-60
2021/12/28 03:07:08;;;;;;;25.92;8.73;;;7.20;99.90;;;;;;10246657;28;20433;-58
2021/12/28 03:12:10;;;;;;;20.98;7.35;;;7.20;99.90;;;;;;10234569;28;20133;-58
2021/12/28 03:17:12;;;;;;;19.88;7.30;;;7.20;99.90;;;;;;10241447;28;20126;-58
2021/12/28 03:22:14;;;;;;;20.85;7.80;;;7.20;99.90;;;;;;10245667;28;20391;-60
2021/12/28 03:27:15;;;;;;;19.52;7.35;;;7.20;99.90;;;;;;10241104;28;20078;-59
2021/12/28 03:32:17;;;;;;;17.35;7.25;;;7.10;99.90;;;;;;10246722;28;20075;-60
2021/12/28 03:37:18;;;;;;;29.05;6.97;;;7.20;99.90;;;;;;10244488;28;20101;-58
2021/12/28 03:42:20;;;;;;;24.15;7.25;;;7.20;99.90;;;;;;10242981;28;20495;-60
2021/12/28 03:47:22;;;;;;;21.15;7.63;;;7.20;99.90;;;;;;10247194;28;20050;-60
2021/12/28 03:52:23;;;;;;;15.40;5.97;;;7.20;99.90;;;;;;10250509;28;24046;-58
2021/12/28 03:57:25;;;;;;;18.02;6.03;;;7.20;99.90;;;;;;10244787;28;20106;-59
2021/12/28 04:02:27;;;;;;;15.07;6.30;;;7.20;99.90;;;;;;10246831;28;20059;-58
2021/12/28 04:07:29;;;;;;;14.82;5.38;;;7.20;99.90;;;;;;10245534;28;20110;-58
2021/12/28 04:12:32;;;;;;;16.10;5.68;;;7.30;99.90;;;;;;10242743;28;20043;-58
2021/12/28 04:17:37;;;;;;;18.20;6.32;;;7.30;99.90;;;;;;10244364;28;20109;-59
2021/12/28 04:22:39;;;;;;;14.50;5.70;;;7.30;99.90;;;;;;10248549;28;20090;-58
2021/12/28 04:27:41;;;;;;;25.70;6.53;;;7.30;99.90;;;;;;10246268;28;20108;-57
2021/12/28 04:32:44;;;;;;;15.82;5.57;;;7.30;99.90;;;;;;10243907;28;20081;-57
2021/12/28 04:37:46;;;;;;;17.23;6.15;;;7.30;99.90;;;;;;10238479;28;20503;-58
2021/12/28 04:42:48;;;;;;;18.23;6.38;;;7.30;99.90;;;;;;10243968;28;20128;-59
2021/12/28 04:47:49;;;;;;;21.17;9.32;;;7.20;99.90;;;;;;10240507;28;20078;-58
2021/12/28 04:52:52;;;;;;;19.85;8.32;;;7.30;99.90;;;;;;10244022;28;20476;-61
2021/12/28 04:57:54;;;;;;;17.63;7.50;;;7.20;99.90;;;;;;10240497;28;20043;-59
2021/12/28 05:02:56;;;;;;;19.23;7.68;;;7.20;99.90;;;;;;10240118;28;20521;-61
2021/12/28 05:07:58;;;;;;;17.52;7.22;;;7.30;99.90;;;;;;10243676;28;20049;-61
2021/12/28 05:13:00;;;;;;;21.15;7.18;;;7.30;99.90;;;;;;10233532;28;20569;-59
2021/12/28 05:18:02;;;;;;;14.90;5.68;;;7.30;99.90;;;;;;10241565;28;20054;-59
2021/12/28 05:23:04;;;;;;;16.80;6.30;;;7.30;99.90;;;;;;10246488;28;20438;-60
2021/12/28 05:28:06;;;;;;;19.20;6.47;;;7.30;99.90;;;;;;10244666;28;20080;-59
2021/12/28 05:33:08;;;;;;;12.73;5.03;;;7.30;99.90;;;;;;10247385;28;20063;-60
2021/12/28 05:38:11;;;;;;;21.30;5.18;;;7.30;99.90;;;;;;10243146;28;20055;-59
2021/12/28 05:43:14;;;;;;;18.98;5.15;;;7.30;99.90;;;;;;10241391;28;20047;-59
2021/12/28 05:48:16;;;;;;;19.98;5.53;;;7.30;99.90;;;;;;10243922;28;20082;-59
2021/12/28 05:53:17;;;;;;;11.05;3.40;;;7.40;99.90;;;;;;10241110;28;20085;-59
2021/12/28 05:58:19;;;;;;;17.95;2.60;;;7.40;99.90;;;;;;10252101;28;20099;-59
2021/12/28 06:03:21;;;;;;;7.78;1.40;;;7.40;99.90;;;;;;10249259;28;20063;-60
2021/12/28 06:08:23;;;;;;;7.53;1.00;;;7.50;99.90;;;;;;10250533;28;20058;-60
2021/12/28 06:13:33;;;;;;;5.15;1.27;;;7.50;99.90;;;;;;10249495;28;20061;-60
2021/12/28 06:18:35;;;;;;;8.27;1.33;;;7.60;99.90;;;;;;10247223;28;20055;-58
2021/12/28 06:23:37;;;;;;;9.75;1.05;;;7.60;99.90;;;;;;10250301;28;20050;-59
2021/12/28 06:28:39;;;;;;;7.93;1.33;;;7.70;99.90;;;;;;10247142;28;20066;-59
2021/12/28 06:33:40;;;;;;;5.43;1.50;;;7.70;99.90;;;;;;10243742;28;20085;-59
2021/12/28 06:38:42;;;;;;;4.00;1.55;;;7.70;99.90;;;;;;10244469;28;20549;-59
2021/12/28 06:43:44;;;;;;;5.90;1.20;;;7.70;99.90;;;;;;10251335;28;20074;-59
2021/12/28 06:48:46;;;;;;;7.72;1.45;;;7.70;99.90;;;;;;10249024;28;20132;-61
2021/12/28 06:53:48;;;;;;;10.50;1.20;;;7.70;99.90;;;;;;10249774;28;20078;-59
2021/12/28 06:58:49;;;;;;;3.63;1.23;;;7.70;99.90;;;;;;10249068;28;20058;-60
2021/12/28 07:03:51;;;;;;;8.00;1.42;;;7.70;99.90;;;;;;10242419;28;20141;-58
2021/12/28 07:08:53;;;;;;;5.45;1.25;;;7.70;99.90;;;;;;10243110;28;20046;-58
2021/12/28 07:13:55;;;;;;;4.15;1.02;;;7.70;99.90;;;;;;10252526;28;20055;-58
2021/12/28 07:18:56;;;;;;;9.43;1.20;;;7.60;99.90;;;;;;10244837;28;20218;-59
2021/12/28 07:23:58;;;;;;;8.18;0.85;;;7.60;99.90;;;;;;10240862;28;20117;-60
2021/12/28 07:29:00;;;;;;;5.20;0.80;;;7.60;99.90;;;;;;10231263;28;20086;-60
2021/12/28 07:34:01;;;;;;;17.55;1.50;;;7.70;99.90;;;;;;10251487;28;20082;-59
2021/12/28 07:39:05;;;;;;;7.63;0.95;;;7.70;99.90;;;;;;10242537;28;20051;-59
2021/12/28 07:44:07;;;;;;;6.90;1.00;;;7.70;99.90;;;;;;10243048;28;20082;-60
2021/12/28 07:49:09;;;;;;;3.40;1.00;;;7.70;99.90;;;;;;10232965;28;20058;-61
2021/12/28 07:54:10;;;;;;;4.53;0.60;;;7.70;99.90;;;;;;10217506;28;20125;-60
2021/12/28 07:59:12;;;;;;;8.05;1.05;;;7.70;99.90;;;;;;10246516;28;20510;-61
2021/12/28 08:04:14;;;;;;;5.00;1.02;;;7.80;99.90;;;;;;10248692;28;20102;-62
2021/12/28 08:09:16;;;;;;;3.25;0.70;;;7.80;99.90;;;;;;10250396;28;20137;-61
2021/12/28 08:14:18;;;;;;;4.88;1.52;;;7.80;99.90;;;;;;10241569;28;20050;-61
2021/12/28 08:19:20;;;;;;;5.22;1.05;;;7.80;99.90;;;;;;10248753;28;20050;-61
2021/12/28 08:24:22;;;;;;;9.38;0.82;;;7.80;99.90;;;;;;10251316;28;20549;-59
2021/12/28 08:29:25;;;;;;;10.23;0.70;;;7.80;99.90;;;;;;10249974;28;20050;-61
2021/12/28 08:34:26;;;;;;;12.00;0.82;;;7.90;99.90;;;;;;10243597;28;20182;-61
2021/12/28 08:39:28;;;;;;;9.02;0.90;;;7.80;99.90;;;;;;10245712;28;20110;-61
2021/12/28 08:44:30;;;;;;;6.45;0.57;;;7.90;99.90;;;;;;10242591;28;20059;-61
2021/12/28 08:49:32;;;;;;;4.38;0.60;;;7.90;99.90;;;;;;10249590;28;20353;-61
2021/12/28 08:54:34;;;;;;;4.97;0.90;;;7.80;99.90;;;;;;10238822;28;20079;-61
2021/12/28 08:59:36;;;;;;;2.45;0.68;;;7.90;99.90;;;;;;10249740;28;20047;-61
2021/12/28 09:04:42;;;;;;;7.32;1.10;;;7.90;99.90;;;;;;10245349;28;20141;-61
2021/12/28 09:09:45;;;;;;;1.33;0.80;;;7.90;99.90;;;;;;10241470;28;20042;-61
2021/12/28 09:14:47;;;;;;;2.22;0.60;;;7.90;99.90;;;;;;10248036;28;20322;-61
2021/12/28 09:19:48;;;;;;;1.77;0.57;;;7.80;99.90;;;;;;10242523;28;20126;-61
2021/12/28 09:24:50;;;;;;;1.98;0.60;;;7.80;99.90;;;;;;10239376;28;20743;-61
2021/12/28 09:29:52;;;;;;;2.15;0.50;;;7.90;99.90;;;;;;10240348;28;20596;-61
2021/12/28 09:34:55;;;;;;;3.13;0.90;;;7.90;99.90;;;;;;10248788;28;20114;-62
2021/12/28 09:39:57;;;;;;;3.95;0.80;;;7.90;99.90;;;;;;10248660;28;20081;-62
2021/12/28 09:44:59;;;;;;;3.72;0.70;;;7.90;99.90;;;;;;10251569;28;20063;-62
2021/12/28 09:50:03;;;;;;;6.82;0.80;;;7.90;99.90;;;;;;10248980;28;20142;-62
2021/12/28 09:55:06;;;;;;;3.53;0.90;;;8.00;99.90;;;;;;10247751;28;20125;-62
2021/12/28 10:00:09;;;;;;;5.40;0.75;;;8.10;99.90;;;;;;10246360;28;20055;-63
2021/12/28 10:06:15;;;;;;;1.38;0.70;;;8.10;99.90;;;;;;10383237;27;20401;-62
2021/12/28 10:11:35;;;;;;;5.15;1.23;;;8.10;99.90;;;;;;10367930;28;20943;-62
2021/12/28 10:16:51;;;;;;;5.40;2.60;;;8.30;99.90;;;;;;10378248;28;20383;-62
2021/12/28 10:21:52;;;;;;;6.82;2.10;;;8.30;99.90;;;;;;10375524;28;20085;-61
2021/12/28 10:27:16;;;;;;;5.68;2.22;;;8.40;99.90;;;;;;10375051;28;20096;-62
2021/12/28 10:32:22;;;;;;;5.00;2.40;;;8.50;99.90;;;;;;10367764;28;20144;-63
2021/12/28 10:37:31;;;;;;;6.37;2.00;;;8.50;99.90;;;;;;10371202;28;20076;-63
2021/12/28 10:42:45;;;;;;;3.78;1.63;;;8.60;99.90;;;;;;10376018;28;20049;-62
2021/12/28 10:47:49;;;;;;;8.90;3.67;;;8.70;99.90;;;;;;10374225;28;20064;-63
2021/12/28 10:53:01;;;;;;;4.50;2.10;;;8.80;99.90;;;;;;10371176;28;20104;-63
2021/12/28 10:58:04;;;;;;;4.20;2.00;;;8.90;99.90;;;;;;10368995;28;20184;-63
2021/12/28 11:03:17;;;;;;;6.18;2.72;;;8.90;99.90;;;;;;10369826;28;20135;-63
2021/12/28 11:08:20;;;;;;;4.20;2.38;;;8.90;99.90;;;;;;10368199;28;20052;-62
2021/12/28 11:13:24;;;;;;;3.45;2.00;;;8.90;99.90;;;;;;10364914;28;20127;-62
2021/12/28 11:18:33;;;;;;;6.93;2.03;;;8.90;99.90;;;;;;10343966;28;20081;-62
2021/12/28 11:23:35;;;;;;;4.30;2.63;;;8.90;99.90;;;;;;10343095;28;20049;-62
2021/12/28 11:28:40;;;;;;;5.30;2.53;;;9.00;99.90;;;;;;10341866;28;20061;-62
2021/12/28 11:33:48;;;;;;;6.53;2.50;;;9.00;99.90;;;;;;10343197;28;20060;-62
2021/12/28 11:38:52;;;;;;;5.93;2.50;;;9.10;99.90;;;;;;10343745;28;20081;-62
2021/12/28 11:43:55;;;;;;;4.88;2.60;;;9.20;99.90;;;;;;10341439;28;20073;-62
2021/12/28 11:48:58;;;;;;;6.25;2.05;;;9.30;99.90;;;;;;10340244;28;20081;-62
2021/12/28 11:54:05;;;;;;;4.00;2.15;;;9.30;99.90;;;;;;10342193;28;20400;-62
2021/12/28 11:59:08;;;;;;;53.03;11.13;;;9.30;99.90;;;;;;10340178;28;20069;-62
2021/12/28 12:04:31;;;;;;;11.63;4.55;;;9.40;99.90;;;;;;10338249;28;20109;-62
2021/12/28 12:09:55;;;;;;;5.22;2.08;;;9.30;99.90;;;;;;10348001;28;20073;-62
2021/12/28 12:15:03;;;;;;;3.20;1.77;;;9.30;99.90;;;;;;10341589;28;20487;-63
2021/12/28 12:20:24;;;;;;;2.72;1.58;;;9.40;99.90;;;;;;10338705;28;20123;-62
2021/12/28 12:25:42;;;;;;;5.10;1.50;;;9.40;99.90;;;;;;10341141;28;20057;-62
2021/12/28 12:30:54;;;;;;;3.25;1.52;;;9.40;99.90;;;;;;10340601;28;20346;-62
2021/12/28 12:35:58;;;;;;;4.57;1.73;;;9.40;99.90;;;;;;10340891;28;20531;-62
2021/12/28 12:41:19;;;;;;;3.97;1.77;;;9.40;99.90;;;;;;10346323;28;20504;-62
2021/12/28 12:46:29;;;;;;;4.10;2.03;;;9.50;99.90;;;;;;10333849;28;20070;-61
2021/12/28 12:51:37;;;;;;;3.55;1.48;;;9.50;99.90;;;;;;10335128;28;20103;-62
2021/12/28 12:56:51;;;;;;;7.30;2.40;;;9.50;99.90;;;;;;10340925;28;20107;-62
2021/12/28 13:02:11;;;;;;;5.75;2.80;;;9.60;99.90;;;;;;10337995;28;20091;-62
2021/12/28 13:07:25;;;;;;;6.75;2.88;;;9.60;99.90;;;;;;10339540;28;20046;-63
2021/12/28 13:12:29;;;;;;;9.02;3.17;;;9.60;99.90;;;;;;10340511;28;20085;-62
2021/12/28 13:17:36;;;;;;;8.45;3.45;;;9.60;99.90;;;;;;10341491;28;20104;-62
2021/12/28 13:22:51;;;;;;;12.20;4.78;;;9.60;99.90;;;;;;10332674;28;20042;-62
2021/12/28 13:27:54;;;;;;;7.78;4.55;;;9.70;99.90;;;;;;10338598;28;20046;-62
2021/12/28 13:32:56;;;;;;;7.82;3.70;;;9.70;99.90;;;;;;10335279;28;20100;-61
2021/12/28 13:38:01;;;;;;;7.25;2.92;;;9.70;99.90;;;;;;10338177;28;20157;-62
2021/12/28 13:43:19;;;;;;;8.95;2.63;;;9.80;99.90;;;;;;10340480;28;20575;-62
2021/12/28 13:48:25;;;;;;;5.20;1.92;;;9.90;99.90;;;;;;10338751;28;20099;-62
2021/12/28 13:53:30;;;;;;;2.08;0.90;;;9.90;99.90;;;;;;10338463;28;20127;-63
2021/12/28 13:58:35;;;;;;;2.88;1.20;;;10.00;99.90;;;;;;10338556;28;20053;-62
2021/12/28 14:03:38;;;;;;;2.42;0.90;;;10.00;99.90;;;;;;10335049;28;20093;-61
2021/12/28 14:08:40;;;;;;;3.70;1.13;;;10.10;99.90;;;;;;10337226;28;20058;-60
2021/12/28 14:13:44;;;;;;;4.85;1.63;;;10.00;99.90;;;;;;10336566;28;20105;-61
2021/12/28 14:18:47;;;;;;;3.72;1.25;;;10.10;99.90;;;;;;10337135;28;20050;-61
2021/12/28 14:24:05;;;;;;;2.20;1.00;;;10.10;99.90;;;;;;10335026;28;20046;-61
2021/12/28 14:29:18;;;;;;;;;;;10.10;99.90;;;;;;10341165;28;20073;-61
2021/12/28 14:34:32;;;;;;;0.88;0.35;;;10.10;99.90;;;;;;10335970;28;19971;-61
2021/12/28 14:39:39;;;;;;;1.92;0.60;;;10.20;99.90;;;;;;10340185;28;20081;-61
2021/12/28 14:44:43;;;;;;;0.00;0.00;;;10.20;99.90;;;;;;10337062;28;20081;-61
2021/12/28 14:49:47;;;;;;;0.00;0.00;;;10.00;99.90;;;;;;10338923;28;20131;-61
2021/12/28 14:55:13;;;;;;;0.00;0.00;;;9.90;99.90;;;;;;10343388;28;20484;-61
2021/12/28 15:00:32;;;;;;;0.00;0.00;;;9.90;99.90;;;;;;10342455;28;20078;-61
2021/12/28 15:05:41;;;;;;;0.00;0.00;;;9.80;99.90;;;;;;10343744;28;20519;-61
2021/12/28 15:10:45;;;;;;;0.00;0.00;;;9.70;99.90;;;;;;10341822;28;20046;-61
2021/12/28 15:15:48;;;;;;;0.00;0.00;;;9.60;99.90;;;;;;10344979;28;20664;-61
2021/12/28 15:20:50;;;;;;;0.00;0.00;;;9.50;99.90;;;;;;10336482;28;20077;-61
2021/12/28 15:25:53;;;;;;;0.00;0.00;;;9.50;99.90;;;;;;10349515;28;20045;-61
2021/12/28 15:30:55;;;;;;;0.00;0.00;;;9.60;99.90;;;;;;10341430;28;20465;-62
2021/12/28 15:35:59;;;;;;;0.00;0.00;;;9.50;99.90;;;;;;10345923;28;20464;-62
2021/12/28 15:41:01;;;;;;;0.00;0.00;;;9.50;99.90;;;;;;10343896;28;20077;-62
2021/12/28 15:46:07;;;;;;;0.00;0.00;;;9.50;99.90;;;;;;10340172;28;20081;-61
2021/12/28 15:51:09;;;;;;;0.00;0.00;;;9.40;99.90;;;;;;10343473;28;20145;-62
2021/12/28 15:56:11;;;;;;;0.00;0.00;;;9.30;99.90;;;;;;10345742;28;20046;-62
2021/12/28 16:01:17;;;;;;;0.00;0.00;;;9.20;99.90;;;;;;10338352;28;20050;-62
2021/12/28 16:06:19;;;;;;;0.00;0.00;;;9.10;99.90;;;;;;10339724;28;20049;-62
2021/12/28 16:11:22;;;;;;;0.00;0.00;;;8.90;99.90;;;;;;10337445;28;20096;-62
2021/12/28 16:16:24;;;;;;;0.00;0.00;;;8.80;99.90;;;;;;10342568;28;20064;-63
2021/12/28 16:21:26;;;;;;;0.00;0.00;;;8.70;99.90;;;;;;10336832;28;20077;-62
2021/12/28 16:26:31;;;;;;;0.00;0.00;;;8.50;99.90;;;;;;10342782;28;20127;-62
2021/12/28 16:31:33;;;;;;;0.00;0.00;;;8.50;99.90;;;;;;10343193;28;20042;-63
2021/12/28 16:36:39;;;;;;;0.00;0.00;;;8.40;99.90;;;;;;10340982;28;20171;-64
2021/12/28 16:41:41;;;;;;;0.00;0.00;;;8.30;99.90;;;;;;10342572;28;20484;-63
2021/12/28 16:46:44;;;;;;;0.00;0.00;;;8.20;99.90;;;;;;10342463;28;20112;-63
2021/12/28 16:51:46;;;;;;;0.00;0.00;;;8.10;99.90;;;;;;10341788;28;20049;-62
2021/12/28 16:56:48;;;;;;;0.00;0.00;;;8.00;99.90;;;;;;10335775;28;20096;-63
2021/12/28 17:01:51;;;;;;;0.00;0.00;;;7.90;99.90;;;;;;10339112;28;20100;-66
2021/12/28 17:06:53;;;;;;;0.00;0.00;;;7.80;99.90;;;;;;10337160;28;20104;-68
2021/12/28 17:11:55;;;;;;;0.00;0.00;;;7.70;99.90;;;;;;10335779;28;20112;-68
2021/12/28 17:16:59;;;;;;;0.00;0.00;;;7.70;99.90;;;;;;10337168;28;20042;-67
2021/12/28 17:22:02;;;;;;;0.00;0.00;;;7.60;99.90;;;;;;10350884;28;20056;-67
2021/12/28 17:27:05;;;;;;;0.00;0.00;;;7.60;99.90;;;;;;10347862;28;20056;-68
2021/12/28 17:32:06;;;;;;;0.00;0.00;;;7.60;99.90;;;;;;10333611;28;20053;-68
2021/12/28 17:37:08;;;;;;;0.00;0.00;;;7.70;99.90;;;;;;10341088;28;20061;-67
2021/12/28 17:42:10;;;;;;;0.00;0.00;;;7.70;99.90;;;;;;10339698;28;20155;-67
2021/12/28 17:47:12;;;;;;;0.00;0.00;;;7.70;99.90;;;;;;10341755;28;20452;-67
2021/12/28 17:52:13;;;;;;;0.00;0.00;;;7.80;99.90;;;;;;10337308;28;20045;-67
2021/12/28 17:57:15;;;;;;;0.00;0.00;;;7.80;99.90;;;;;;10332249;28;20488;-66
2021/12/28 18:02:17;;;;;;;0.00;0.00;;;7.80;99.90;;;;;;10338676;28;20136;-67
2021/12/28 18:07:19;;;;;;;0.00;0.00;;;7.70;99.90;;;;;;10335209;28;20034;-62
2021/12/28 18:12:21;;;;;;;0.00;0.00;;;7.80;99.90;;;;;;10338525;28;20100;-63
2021/12/28 18:17:23;;;;;;;0.00;0.00;;;7.70;99.90;;;;;;10339916;28;20061;-63
2021/12/28 18:22:25;;;;;;;0.00;0.00;;;7.80;99.90;;;;;;10336775;28;20123;-64
2021/12/28 18:27:27;;;;;;;0.00;0.00;;;7.80;99.90;;;;;;10346420;28;20154;-65
2021/12/28 18:32:29;;;;;;;0.00;0.00;;;7.70;99.90;;;;;;10340733;28;20045;-65
2021/12/28 18:37:30;;;;;;;0.00;0.00;;;7.60;99.90;;;;;;10345896;28;20128;-65
2021/12/28 18:42:32;;;;;;;0.00;0.00;;;7.70;99.90;;;;;;10345558;28;20052;-65
2021/12/28 18:47:34;;;;;;;0.00;0.00;;;7.60;99.90;;;;;;10343455;28;20261;-64
2021/12/28 18:52:36;;;;;;;0.00;0.00;;;7.60;99.90;;;;;;10347016;28;20061;-64
2021/12/28 18:57:38;;;;;;;0.15;0.15;;;7.70;99.90;;;;;;10342896;28;20126;-63
2021/12/28 19:02:39;;;;;;;0.00;0.00;;;7.70;99.90;;;;;;10343506;28;20049;-65
2021/12/28 19:07:42;;;;;;;0.00;0.00;;;7.70;99.90;;;;;;10347140;28;20069;-63
2021/12/28 19:12:44;;;;;;;0.00;0.00;;;7.70;99.90;;;;;;10345456;28;20052;-63
2021/12/28 19:17:48;;;;;;;0.00;0.00;;;7.70;99.90;;;;;;10339765;28;20117;-63
2021/12/28 19:22:51;;;;;;;0.00;0.00;;;7.60;99.90;;;;;;10344030;28;20057;-63
2021/12/28 19:27:54;;;;;;;0.00;0.00;;;7.70;99.90;;;;;;10342459;28;20128;-62
2021/12/28 19:32:55;;;;;;;0.00;0.00;;;7.60;99.90;;;;;;10344002;28;20053;-63
2021/12/28 19:38:00;;;;;;;0.00;0.00;;;7.60;99.90;;;;;;10342089;28;20057;-62
2021/12/28 19:43:04;;;;;;;0.00;0.00;;;7.70;99.90;;;;;;10345724;28;20086;-63
2021/12/28 19:48:06;;;;;;;0.00;0.00;;;7.80;99.90;;;;;;10345788;28;20057;-62
2021/12/28 19:53:09;;;;;;;0.00;0.00;;;7.80;99.90;;;;;;10343670;28;20113;-62
2021/12/28 19:58:11;;;;;;;0.00;0.00;;;7.80;99.90;;;;;;10342872;28;20108;-62
2021/12/28 20:03:12;;;;;;;0.00;0.00;;;7.80;99.90;;;;;;10345855;28;20468;-63
2021/12/28 20:08:14;;;;;;;0.00;0.00;;;7.90;99.90;;;;;;10337166;28;20070;-63
2021/12/28 20:13:17;;;;;;;0.00;0.00;;;7.80;99.90;;;;;;10346867;28;20077;-63
2021/12/28 20:18:19;;;;;;;0.00;0.00;;;7.90;99.90;;;;;;10354638;28;20570;-63
2021/12/28 20:23:20;;;;;;;0.00;0.00;;;7.80;99.90;;;;;;10333262;28;20089;-63
2021/12/28 20:28:23;;;;;;;0.00;0.00;;;7.80;99.90;;;;;;10340273;28;20120;-62
2021/12/28 20:33:25;;;;;;;0.00;0.00;;;7.80;99.90;;;;;;10344182;28;20058;-62
2021/12/28 20:38:27;;;;;;;0.00;0.00;;;7.80;99.90;;;;;;10347806;28;20119;-62
2021/12/28 20:43:29;;;;;;;0.00;0.00;;;7.80;99.90;;;;;;10343093;28;20150;-62
2021/12/28 20:48:30;;;;;;;0.00;0.00;;;7.80;99.90;;;;;;10336934;28;20046;-61
2021/12/28 20:53:32;;;;;;;0.00;0.00;;;7.80;99.90;;;;;;10345165;28;20049;-61
2021/12/28 20:58:34;;;;;;;0.00;0.00;;;7.80;99.90;;;;;;10344684;28;20054;-61
2021/12/28 21:03:36;;;;;;;0.00;0.00;;;7.80;99.90;;;;;;10340070;28;20054;-61
2021/12/28 21:08:38;;;;;;;0.00;0.00;;;7.80;99.90;;;;;;10337975;28;20074;-61
2021/12/28 21:13:39;;;;;;;0.00;0.00;;;7.80;99.90;;;;;;10340861;28;20053;-62
2021/12/28 21:18:41;;;;;;;0.00;0.00;;;7.80;99.90;;;;;;10342024;28;20053;-61
2021/12/28 21:23:43;;;;;;;0.00;0.00;;;7.80;99.90;;;;;;10338462;28;20046;-62
2021/12/28 21:28:45;;;;;;;0.00;0.00;;;7.80;99.90;;;;;;10342489;28;20072;-62
2021/12/28 21:33:47;;;;;;;0.00;0.00;;;7.90;99.90;;;;;;10340483;28;20128;-62
2021/12/28 21:38:49;;;;;;;0.00;0.00;;;7.90;99.90;;;;;;10339868;28;20042;-62
2021/12/28 21:43:51;;;;;;;0.00;0.00;;;7.90;99.90;;;;;;10342907;28;20046;-62
2021/12/28 21:48:54;;;;;;;0.00;0.00;;;7.90;99.90;;;;;;10342436;28;20060;-62
2021/12/28 21:53:56;;;;;;;0.00;0.00;;;7.90;99.90;;;;;;10342552;28;20408;-62
2021/12/28 21:58:58;;;;;;;0.00;0.00;;;7.90;99.90;;;;;;10336446;28;20084;-61
2021/12/28 22:03:59;;;;;;;0.00;0.00;;;7.90;99.90;;;;;;10340465;28;20042;-62
2021/12/28 22:09:02;;;;;;;0.00;0.00;;;8.00;99.90;;;;;;10341869;28;20135;-61
2021/12/28 22:14:05;;;;;;;0.00;0.00;;;8.00;99.90;;;;;;10338164;28;20132;-62
2021/12/28 22:19:06;;;;;;;0.00;0.00;;;8.00;99.90;;;;;;10344326;28;20077;-61
2021/12/28 22:24:08;;;;;;;0.00;0.00;;;8.00;99.90;;;;;;10342362;28;20497;-61
2021/12/28 22:29:10;;;;;;;0.00;0.00;;;8.00;99.90;;;;;;10341981;28;20125;-62
2021/12/28 22:34:14;;;;;;;0.00;0.00;;;8.00;99.90;;;;;;10339740;28;20103;-61
2021/12/28 22:39:16;;;;;;;0.00;0.00;;;8.10;99.90;;;;;;10334594;28;20455;-62
2021/12/28 22:44:18;;;;;;;0.00;0.00;;;8.10;99.90;;;;;;10336903;28;20042;-62
2021/12/28 22:49:20;;;;;;;0.00;0.00;;;8.10;99.90;;;;;;10339058;28;20074;-61
2021/12/28 22:54:22;;;;;;;0.00;0.00;;;8.10;99.90;;;;;;10340130;28;20505;-61
2021/12/28 22:59:24;;;;;;;0.00;0.00;;;8.20;99.90;;;;;;10343299;28;20115;-62
2021/12/28 23:04:26;;;;;;;0.00;0.00;;;8.20;99.90;;;;;;10339129;28;20069;-61
2021/12/28 23:09:28;;;;;;;0.00;0.00;;;8.20;99.90;;;;;;10340701;28;20131;-62
2021/12/28 23:14:30;;;;;;;0.00;0.00;;;8.30;99.90;;;;;;10348103;28;20046;-61
2021/12/28 23:19:32;;;;;;;0.00;0.00;;;8.30;99.90;;;;;;10351628;28;20698;-62
2021/12/28 23:24:33;;;;;;;0.00;0.00;;;8.30;99.90;;;;;;10343597;28;20114;-62
2021/12/28 23:29:35;;;;;;;0.00;0.00;;;8.40;99.90;;;;;;10347454;28;20159;-62
2021/12/28 23:34:37;;;;;;;0.00;0.00;;;8.40;99.90;;;;;;10342804;28;20073;-62
2021/12/28 23:39:38;;;;;;;0.00;0.00;;;8.40;99.90;;;;;;10345560;28;20472;-62
2021/12/28 23:44:40;;;;;;;0.00;0.00;;;8.40;99.90;;;;;;10348710;28;20104;-62
2021/12/28 23:49:42;;;;;;;0.00;0.00;;;8.50;99.90;;;;;;10348070;28;20165;-62
2021/12/28 23:54:44;;;;;;;2.15;0.20;;;8.50;99.90;;;;;;10344238;28;20450;-62
2021/12/28 23:59:46;;;;;;;0.32;0.03;;;8.50;99.90;;;;;;10341602;28;20081;-62
